WETTERDATEN

GESTERN
Time Temp. Taup. r.Fe. Windrich Windstärke Windböe Druck 1h Prec. 24h Prec.
00:10 13.5 13.5 100 208 2.2 3.6 1013.3 0.0000 0.0000
00:20 13.5 13.5 100 208 2.5 3.6 1013.4 0.0000 0.0000
00:30 13.4 13.4 100 209 2.5 3.1 1013.4 0.0000 0.0000
00:40 13.4 13.4 100 210 2.5 3.6 1013.4 0.0000 0.0000
00:50 13.3 13.3 100 207 2.5 3.1 1013.2 0.0000 0.0000
01:00 13.1 13.1 100 209 2.2 3.1 1013.1 0.0000 0.0000
01:10 13.1 13.1 100 209 2.5 3.1 1013 0.0000 0.0000
01:21 13.1 13.1 100 209 2.2 3.1 1013 0.0000 0.0000
01:30 13.1 13.1 100 207 2.5 3.6 1013 0.0000 0.0000
01:40 13.2 13.2 100 209 2.5 3.1 1012.9 0.0000 0.0000
01:50 13.2 13.2 100 209 2.5 3.1 1012.9 0.0000 0.0000
02:01 13.2 13.2 100 208 2.5 3.6 1012.9 0.0000 0.0000
02:11 13.2 13.2 100 210 2.5 3.6 1012.8 0.0000 0.0000
02:20 13.3 13.3 100 215 2.8 3.9 1012.7 0.0000 0.0000
02:31 13.4 13.4 100 215 2.8 3.6 1012.7 0.0000 0.0000
02:41 13.4 13.4 100 212 2.8 3.6 1012.6 0.0000 0.0000
02:51 13.2 13.2 100 210 2.5 3.1 1012.6 0.0000 0.0000
03:01 13.2 13.2 100 213 2.5 3.6 1012.5 0.0000 0.0000
03:11 13.2 13.2 100 210 2.5 3.6 1012.5 0.0000 0.0000
03:21 13.1 13.1 100 211 2.5 3.6 1012.5 0.0000 0.0000
03:31 13.2 13.2 100 213 2.5 3.1 1012.4 0.0000 0.0000
03:42 13.3 13.3 100 212 2.5 3.6 1012.5 0.0000 0.0000
03:51 13.3 13.3 100 215 2.8 3.6 1012.4 0.0000 0.0000
04:01 13.4 13.4 100 213 2.8 3.6 1012.4 0.0000 0.0000
04:11 13.5 13.5 100 213 2.8 3.6 1012.3 0.0000 0.0000
04:22 13.5 13.5 100 213 2.8 3.9 1012.2 0.0000 0.0000
04:32 13.5 13.5 100 213 2.5 3.6 1012.2 0.0000 0.0000
04:41 13.5 13.5 100 213 2.5 3.1 1012.2 0.0000 0.0000
04:52 13.5 13.5 100 213 2.5 3.9 1012.2 0.0000 0.0000
05:02 13.3 13.3 100 212 2.5 3.6 1012 0.2020 0.2000
05:12 13.2 13.2 100 212 2.8 3.6 1012.1 0.2020 0.2000
05:22 13.3 13.3 100 213 2.8 3.9 1011.9 0.2020 0.2000
05:32 13.3 13.3 100 215 2.8 3.9 1011.9 0.2020 0.2000
05:42 13.2 13.2 100 217 2.5 3.6 1011.9 0.2020 0.2000
05:52 13.2 13.2 100 213 2.8 3.6 1011.8 0.2020 0.2000
06:03 13.2 13.2 100 209 2.5 3.6 1011.7 0.0000 0.2000
06:13 13.3 13.3 100 212 2.5 3.6 1011.7 0.0000 0.2000
06:22 13.3 13.3 100 213 2.8 3.1 1011.7 0.0000 0.2000
06:32 13.4 13.4 100 215 2.8 3.6 1011.7 0.0000 0.2000
06:43 13.4 13.4 100 214 2.8 3.6 1011.7 0.0000 0.2000
06:53 13.5 13.5 100 214 2.8 3.6 1011.6 0.0000 0.2000
07:03 13.5 13.5 100 215 2.8 3.1 1011.7 0.0000 0.2000
07:13 13.6 13.6 100 213 2.8 3.6 1011.6 0.0000 0.2000
07:23 13.6 13.6 100 216 2.8 3.6 1011.5 0.0000 0.2000
07:33 13.7 13.7 100 214 3.1 4.7 1011.5 0.0000 0.2000
07:43 13.7 13.7 100 215 2.8 3.6 1011.5 0.0000 0.2000
07:54 13.7 13.7 100 211 2.5 3.1 1011.3 0.0000 0.2000
08:03 13.8 13.8 100 213 2.5 3.6 1011.3 0.0000 0.2000
08:13 13.9 13.9 100 221 2.8 3.9 1011.3 0.0000 0.2000
08:24 14 14 100 219 2.8 3.9 1011.2 0.0000 0.2000
08:34 14.1 14.1 100 214 2.8 3.6 1011.3 0.0000 0.2000
08:43 14.1 14.1 100 220 2.8 3.9 1011.2 0.0000 0.2000
08:53 14.3 14.3 100 214 2.5 3.6 1011.3 0.1010 0.3000
09:04 14.2 14.2 100 212 2.5 3.6 1011.3 0.7070 0.9000
09:14 14.3 14.3 100 214 2.8 3.6 1011.5 1.1110 1.3000
09:24 14.3 14.3 100 218 2.8 3.9 1011.5 1.1110 1.3000
09:34 14.3 14.3 100 215 2.8 3.6 1011.5 1.1110 1.3000
09:44 14.3 14.3 100 212 2.5 3.1 1011.5 1.1110 1.3000
09:54 14.3 14.3 100 209 2.2 3.6 1011.5 0.8080 1.3000
10:04 14.4 14.4 100 214 2.5 3.6 1011.3 0.1010 1.3000
10:15 14.4 14.4 100 211 2.5 3.6 1011.3 0.0000 1.3000
10:24 14.4 14.4 100 213 2.5 3.6 1011.2 0.1010 1.4000
10:34 14.4 14.4 100 212 2.5 3.1 1011 0.6060 1.9000
10:45 14.6 14.6 100 210 2.5 3.9 1010.9 1.4140 2.7000
10:55 14.6 14.6 100 213 2.8 3.9 1010.9 1.9190 3.2000
11:05 14.6 14.6 100 213 2.8 3.9 1010.8 2.2220 3.5000
11:14 14.7 14.7 100 212 2.5 3.9 1010.8 2.4240 3.7000
11:25 14.8 14.8 100 217 2.8 4.7 1010.8 2.3230 3.9000
11:35 14.9 14.9 100 214 2.8 3.9 1010.9 1.6160 4.0000
11:45 15 15 100 212 2.8 3.9 1010.9 1.0100 4.0000
11:55 15.1 15.1 100 216 2.8 4.2 1010.9 0.6060 4.0000
12:05 15.2 15.2 100 213 2.5 3.6 1010.8 0.6060 4.2000
12:15 15.4 15.4 100 212 2.5 3.6 1010.8 0.4040 4.2000
12:25 15.7 15.7 100 215 2.5 3.6 1010.8 0.2020 4.2000
12:36 16 16 100 209 2.5 3.6 1010.7 0.2020 4.2000
12:45 16.2 16.2 100 214 2.8 4.2 1010.6 0.2020 4.2000
12:55 16.5 16.5 100 214 2.8 3.9 1010.6 0.0000 4.2000
13:05 16.4 16.4 100 214 2.8 3.9 1010.6 0.0000 4.2000
13:16 16.6 16.6 100 216 2.8 3.9 1010.5 0.0000 4.2000
13:26 17.5 17.5 100 210 2.2 3.1 1010.4 0.0000 4.2000
13:35 18.7 18.7 100 214 2.8 4.2 1010.3 0.0000 4.2000
13:46 18.5 18.5 100 214 2.8 5 1010.2 0.0000 4.2000
13:56 18.6 18.6 100 211 2.8 4.2 1010.1 0.0000 4.2000
14:06 19.2 19.2 100 215 2.8 4.2 1009.9 0.0000 4.2000
14:16 18.6 18.6 100 205 2.8 3.9 1009.8 0.0000 4.2000
14:26 18.1 18.1 100 211 2.8 4.7 1009.8 0.0000 4.2000
14:36 17.6 17.6 100 214 3.6 5 1009.8 0.5050 4.7000
14:46 17 17 100 211 3.6 4.7 1009.9 1.6160 5.9000
14:57 16.7 16.7 100 218 4.7 6.7 1010.1 4.2440 8.5000
15:07 16.6 16.6 100 216 3.9 5.6 1009.8 4.9510 9.2000
15:16 16.7 16.7 100 207 2.2 3.6 1009.9 5.0520 9.3000
15:26 16.7 16.7 100 203 1.7 3.1 1009.8 5.0520 9.3000
15:37 16.6 16.6 100 217 3.6 5 1009.8 4.5470 9.6000
15:47 16.6 16.6 100 216 3.1 4.7 1009.9 2.7280 9.9000
15:57 16.6 16.6 100 213 2.8 4.2 1009.9 0.9090 10.0000
16:07 16.4 16.4 100 213 3.1 6.1 1010.1 0.8080 10.1000
16:17 16.3 16.3 100 210 2.8 3.9 1009.9 0.8080 10.1000
16:27 16.2 16.2 100 214 3.1 4.2 1010 0.6060 10.1000
16:37 16.3 16.3 100 218 3.6 4.7 1010.1 0.6060 10.3000
16:48 16.7 16.7 100 215 2.8 4.2 1009.9 0.5050 10.5000
16:57 17.2 17.2 100 214 2.5 4.2 1009.9 0.5050 10.5000
17:07 17.3 17.3 100 212 2.8 4.2 1009.9 0.5050 10.6000
17:18 17.2 17.2 100 213 2.8 3.9 1009.9 0.5050 10.6000
17:28 17.1 17.1 100 212 2.8 3.9 1009.9 0.5050 10.6000
17:37 17.2 17.2 100 213 2.8 4.2 1009.8 0.1010 10.6000
17:47 17.1 17.1 100 213 2.5 3.9 1009.7 0.1010 10.6000
17:58 17.6 17.6 100 208 2.2 3.6 1009.8 0.0000 10.6000
18:08 17.7 17.7 100 213 3.1 4.2 1009.8 0.0000 10.6000
18:18 18 18 100 217 2.8 3.9 1009.7 0.0000 10.6000
18:28 17.8 17.8 100 215 3.1 3.9 1009.8 0.0000 10.6000
18:38 17.5 17.5 100 218 3.1 4.2 1009.7 0.0000 10.6000
18:48 17.4 17.4 100 216 3.6 5 1009.8 0.0000 10.6000
18:58 17.2 17.2 100 216 3.9 5 1009.9 0.0000 10.6000
19:09 17.2 17.2 100 217 3.1 4.7 1009.9 0.0000 10.6000
19:18 17.3 17.3 100 221 3.1 4.2 1010 0.0000 10.6000
19:28 17.4 17.4 100 221 3.1 4.7 1010 0.0000 10.6000
19:39 17.2 17.2 100 216 3.6 5.3 1010 0.0000 10.6000
19:49 17 17 100 217 3.6 4.7 1010.1 0.0000 10.6000
19:59 16.9 16.9 100 217 3.6 4.7 1010.1 0.0000 10.6000
20:08 16.8 16.8 100 216 3.9 5.3 1010.1 0.0000 10.6000
20:19 16.6 16.6 100 216 3.6 4.2 1010.2 0.0000 10.6000
20:29 16.5 16.5 100 216 3.9 5 1010.3 0.0000 10.6000
20:39 16.3 16.3 100 216 3.9 5 1010.3 0.0000 10.6000
20:49 16.1 16.1 100 215 3.6 4.7 1010.4 0.0000 10.6000
20:59 15.9 15.9 100 214 3.6 4.7 1010.4 0.0000 10.6000
21:09 15.7 15.7 100 212 3.1 5 1010.5 0.0000 10.6000
21:19 15.6 15.6 100 213 3.1 4.2 1010.5 0.0000 10.6000
21:30 15.5 15.5 100 212 3.1 4.2 1010.7 0.0000 10.6000
21:40 15.6 15.6 100 211 2.8 4.2 1010.8 0.0000 10.6000
21:49 15.6 15.6 100 213 2.8 4.2 1010.8 0.0000 10.6000
22:00 15.6 15.6 100 212 2.8 3.6 1010.8 0.0000 10.6000
22:10 15.5 15.5 100 212 2.5 3.6 1010.8 0.0000 10.6000
22:20 15.3 15.3 100 210 2.8 3.9 1010.9 0.0000 10.6000
22:29 15.2 15.2 100 212 2.8 3.9 1011 0.0000 10.6000
22:40 15 15 100 211 2.8 3.9 1011 0.0000 10.6000
22:50 15 15 100 212 2.8 3.9 1011.1 0.0000 10.6000
23:00 15 15 100 215 2.8 3.9 1011.1 0.0000 10.6000
23:10 15 15 100 214 2.5 3.6 1011 0.0000 10.6000
23:20 15 15 100 210 2.8 3.6 1011.1 0.0000 10.6000
23:30 15 15 100 211 2.8 3.6 1011.2 0.0000 10.6000
23:40 15 15 100 211 2.8 3.9 1011.2 0.0000 10.6000
23:51 14.9 14.9 100 212 2.8 3.9 1011.2 0.0000 10.6000

TAGESSTATISTIK

2021-08-03
TEMPERATUR
MITTEL
15.1
MAXIMUM
19.2
14:06
MINIMUM
13.1
01:00
LUFTDRUCK
MITTEL
1011.1
MAXIMUM
1013.4
00:20
MINIMUM
1009.7
17:47
TAUPUNKT
MITTEL
15.1
MAXIMUM
19.2
14:06
MINIMUM
13.1
01:00
FEUCHTIGKEIT
MITTEL
100
MAXIMUM
100
00:10
MINIMUM
100
00:10
WINDSTÄRKE
MITTEL
2.8
MAXIMUM
4.7
14:57
WINDBÖE
MITTEL
3.9
MAXIMUM
6.7
14:57
WINDRICHTUNG
VORHERRSCHENDE
SW
99.3%
N
0.0
NO
0.0
O
0.0
SO
0.0
S
0.7
SW
99.3
W
0.0
NW
0.0
NIEDERSCHLAG
REGEN STUNDE
5.1
REGEN TAG
10.6
TEMPERATUR (°C)
MINIMUM
13.1
MAXIMUM
19.2
MITTEL
15.1
LUFTDRUCK (hpa)
MINIMUM
1009.7
MAXIMUM
1013.4
MITTEL
1011.1
MESSGERÄT